createdAt,value
2022-09-12T00:03:06.976Z,1004.11
2022-09-12T00:08:06.908Z,1004.02
2022-09-12T00:13:06.826Z,1004.10
2022-09-12T00:18:06.783Z,1004.03
2022-09-12T00:23:06.885Z,1004.04
2022-09-12T00:28:06.655Z,1004.04
2022-09-12T00:33:06.580Z,1004.10
2022-09-12T00:38:06.553Z,1004.03
2022-09-12T00:43:06.458Z,1004.01
2022-09-12T00:48:06.393Z,1004.03
2022-09-12T00:53:06.305Z,1004.00
2022-09-12T00:58:06.267Z,1003.99
2022-09-12T01:03:06.187Z,1003.94
2022-09-12T01:08:06.123Z,1003.94
2022-09-12T01:13:06.045Z,1003.86
2022-09-12T01:18:06.004Z,1003.89
2022-09-12T01:23:05.921Z,1003.88
2022-09-12T01:28:06.051Z,1003.89
2022-09-12T01:33:05.780Z,1003.87
2022-09-12T01:38:05.723Z,1003.88
2022-09-12T01:43:05.761Z,1003.87
2022-09-12T01:48:05.593Z,1003.81
2022-09-12T01:53:05.552Z,1003.81
2022-09-12T01:58:05.463Z,1003.77
2022-09-12T02:03:05.392Z,1003.73
2022-09-12T02:08:05.302Z,1003.70
2022-09-12T02:13:05.239Z,1003.71
2022-09-12T02:18:05.201Z,1003.69
2022-09-12T02:23:05.124Z,1003.66
2022-09-12T02:28:05.053Z,1003.65
2022-09-12T02:33:05.022Z,1003.65
2022-09-12T02:38:04.944Z,1003.60
2022-09-12T02:43:04.836Z,1003.47
2022-09-12T02:48:04.757Z,1003.51
2022-09-12T02:53:04.704Z,1003.50
2022-09-12T02:58:04.624Z,1003.45
2022-09-12T03:03:04.544Z,1003.59
2022-09-12T03:08:04.495Z,1003.62
2022-09-12T03:13:04.739Z,1003.66
2022-09-12T03:18:04.377Z,1003.64
2022-09-12T03:23:04.397Z,1003.60
2022-09-12T03:28:04.290Z,1003.64
2022-09-12T03:33:04.192Z,1003.58
2022-09-12T03:38:04.267Z,1003.66
2022-09-12T03:43:04.452Z,1003.65
2022-09-12T03:48:04.017Z,1003.57
2022-09-12T03:53:04.173Z,1003.62
2022-09-12T03:58:03.824Z,1003.65
2022-09-12T04:03:03.806Z,1003.63
2022-09-12T04:08:03.686Z,1003.71
2022-09-12T04:13:03.645Z,1003.70
2022-09-12T04:18:05.916Z,1003.70
2022-09-12T04:23:03.490Z,1003.68
2022-09-12T04:28:03.416Z,1003.63
2022-09-12T04:33:07.932Z,1003.65
2022-09-12T04:38:03.260Z,1003.69
2022-09-12T04:43:03.396Z,1003.68
2022-09-12T04:48:03.190Z,1003.71
2022-09-12T04:53:03.104Z,1003.75
2022-09-12T04:58:03.010Z,1003.88
2022-09-12T05:03:02.967Z,1003.98
2022-09-12T05:08:02.877Z,1003.84
2022-09-12T05:13:02.927Z,1003.91
2022-09-12T05:18:02.731Z,1003.93
2022-09-12T05:23:02.678Z,1003.94
2022-09-12T05:28:02.675Z,1003.84
2022-09-12T05:33:02.553Z,1003.93
2022-09-12T05:38:02.474Z,1003.97
2022-09-12T05:43:02.418Z,1004.07
2022-09-12T05:48:02.427Z,1004.06
2022-09-12T05:53:02.283Z,1004.15
2022-09-12T05:58:02.251Z,1004.18
2022-09-12T06:03:02.208Z,1004.17
2022-09-12T06:08:02.136Z,1004.14
2022-09-12T06:13:02.099Z,1004.17
2022-09-12T06:18:02.001Z,1004.11
2022-09-12T06:23:01.964Z,1004.10
2022-09-12T06:28:01.809Z,1004.16
2022-09-12T06:33:01.766Z,1004.16
2022-09-12T06:38:01.730Z,1004.23
2022-09-12T06:43:01.670Z,1004.18
2022-09-12T06:48:01.697Z,1004.24
2022-09-12T06:53:01.699Z,1004.20
2022-09-12T06:58:01.457Z,1004.30
2022-09-12T07:03:01.401Z,1004.29
2022-09-12T07:08:01.318Z,1004.39
2022-09-12T07:13:01.285Z,1004.41
2022-09-12T07:18:01.245Z,1004.42
2022-09-12T07:23:01.111Z,1004.47
2022-09-12T07:28:01.037Z,1004.55
2022-09-12T07:33:00.987Z,1004.45
2022-09-12T07:38:00.934Z,1004.51
2022-09-12T07:43:00.878Z,1004.45
2022-09-12T07:48:00.776Z,1004.47
2022-09-12T07:53:00.704Z,1004.40
2022-09-12T07:58:00.644Z,1004.51
2022-09-12T08:03:00.593Z,1004.50
2022-09-12T08:08:00.485Z,1004.58
2022-09-12T08:13:00.467Z,1004.54
2022-09-12T08:18:00.395Z,1004.54
2022-09-12T08:23:00.309Z,1004.64
2022-09-12T08:28:00.262Z,1004.51
2022-09-12T08:33:00.261Z,1004.58
2022-09-12T08:38:00.187Z,1004.55
2022-09-12T08:43:00.268Z,1004.60
2022-09-12T08:47:59.991Z,1004.44
2022-09-12T08:52:59.923Z,1004.54
2022-09-12T08:57:59.965Z,1004.52
2022-09-12T09:03:00.041Z,1004.42
2022-09-12T09:07:59.743Z,1004.44
2022-09-12T09:12:59.706Z,1004.48
2022-09-12T09:17:59.636Z,1004.49
2022-09-12T09:22:59.573Z,1004.41
2022-09-12T09:27:59.617Z,1004.32
2022-09-12T09:32:59.518Z,1004.23
2022-09-12T09:37:59.377Z,1004.24
2022-09-12T09:42:59.338Z,1004.21
2022-09-12T09:47:59.218Z,1004.22
2022-09-12T09:52:59.174Z,1004.24
2022-09-12T09:57:59.147Z,1004.27
2022-09-12T10:02:59.089Z,1004.16
2022-09-12T10:07:59.170Z,1004.11
2022-09-12T10:12:58.942Z,1004.10
2022-09-12T10:17:58.832Z,1004.16
2022-09-12T10:22:58.771Z,1004.05
2022-09-12T10:27:58.692Z,1004.00
2022-09-12T10:32:58.697Z,1004.07
2022-09-12T10:37:58.617Z,1004.02
2022-09-12T10:42:58.474Z,1004.00
2022-09-12T10:47:58.396Z,1003.93
2022-09-12T10:52:58.414Z,1003.89
2022-09-12T10:57:58.279Z,1003.81
2022-09-12T11:02:58.239Z,1003.71
2022-09-12T11:07:58.169Z,1003.62
2022-09-12T11:12:58.267Z,1003.55
2022-09-12T11:17:58.018Z,1003.61
2022-09-12T11:22:58.010Z,1003.65
2022-09-12T11:27:57.948Z,1003.68
2022-09-12T11:32:57.877Z,1003.48
2022-09-12T11:37:57.789Z,1003.55
2022-09-12T11:42:57.698Z,1003.54
2022-09-12T11:47:57.616Z,1003.62
2022-09-12T11:52:57.600Z,1003.63
2022-09-12T11:57:57.487Z,1003.57
2022-09-12T12:02:57.427Z,1003.60
2022-09-12T12:07:57.359Z,1003.67
2022-09-12T12:12:57.299Z,1003.63
2022-09-12T12:17:57.422Z,1003.53
2022-09-12T12:22:57.216Z,1003.53
2022-09-12T12:27:57.111Z,1003.45
2022-09-12T12:32:57.073Z,1003.46
2022-09-12T12:37:57.017Z,1003.28
2022-09-12T12:42:56.912Z,1003.32
2022-09-12T12:47:56.879Z,1003.32
2022-09-12T12:52:56.767Z,1003.30
2022-09-12T12:57:56.706Z,1003.12
2022-09-12T13:02:56.693Z,1003.11
2022-09-12T13:07:56.578Z,1003.09
2022-09-12T13:12:56.538Z,1002.97
2022-09-12T13:17:56.630Z,1002.96
2022-09-12T13:22:56.416Z,1002.90
2022-09-12T13:27:56.332Z,1002.82
2022-09-12T13:32:56.272Z,1002.87
2022-09-12T13:37:56.230Z,1002.86
2022-09-12T13:42:56.144Z,1002.80
2022-09-12T13:47:58.721Z,1002.82
2022-09-12T13:52:56.041Z,1002.83
2022-09-12T13:57:55.953Z,1002.72
2022-09-12T14:02:55.902Z,1002.73
2022-09-12T14:07:55.788Z,1002.66
2022-09-12T14:12:55.726Z,1002.65
2022-09-12T14:17:55.700Z,1002.73
2022-09-12T14:22:55.610Z,1002.70
2022-09-12T14:27:55.537Z,1002.64
2022-09-12T14:32:55.464Z,1002.71
2022-09-12T14:37:55.378Z,1002.57
2022-09-12T14:43:00.564Z,1002.51
2022-09-12T14:47:56.243Z,1002.54
2022-09-12T14:52:55.241Z,1002.48
2022-09-12T14:57:55.154Z,1002.44
2022-09-12T15:02:55.056Z,1002.42
2022-09-12T15:07:55.004Z,1002.40
2022-09-12T15:12:54.944Z,1002.33
2022-09-12T15:17:54.887Z,1002.26
2022-09-12T15:22:54.797Z,1002.32
2022-09-12T15:27:54.728Z,1002.37
2022-09-12T15:32:54.701Z,1002.28
2022-09-12T15:37:54.625Z,1002.33
2022-09-12T15:42:54.567Z,1002.33
2022-09-12T15:47:54.485Z,1002.33
2022-09-12T15:52:54.432Z,1002.20
2022-09-12T15:57:54.362Z,1002.25
2022-09-12T16:02:54.321Z,1002.31
2022-09-12T16:07:54.228Z,1002.30
2022-09-12T16:12:54.173Z,1002.22
2022-09-12T16:17:54.097Z,1002.19
2022-09-12T16:22:54.064Z,1002.13
2022-09-12T16:27:53.985Z,1002.08
2022-09-12T16:32:53.938Z,1002.05
2022-09-12T16:37:53.915Z,1002.09
2022-09-12T16:42:53.767Z,1001.97
2022-09-12T16:47:53.755Z,1002.03
2022-09-12T16:52:53.617Z,1001.92
2022-09-12T16:57:53.561Z,1001.85
2022-09-12T17:02:53.644Z,1001.86
2022-09-12T17:07:53.443Z,1001.82
2022-09-12T17:12:53.397Z,1001.84
2022-09-12T17:17:53.316Z,1001.67
2022-09-12T17:22:53.228Z,1001.64
2022-09-12T17:27:53.180Z,1001.73
2022-09-12T17:32:53.099Z,1001.76
2022-09-12T17:37:53.038Z,1001.79
2022-09-12T17:42:53.171Z,1001.77
2022-09-12T17:47:52.897Z,1001.78
2022-09-12T17:52:52.828Z,1001.68
2022-09-12T17:57:52.782Z,1001.76
2022-09-12T18:02:52.756Z,1001.86
2022-09-12T18:07:52.623Z,1001.85
2022-09-12T18:12:52.624Z,1001.80
2022-09-12T18:17:52.484Z,1001.78
2022-09-12T18:22:52.445Z,1001.80
2022-09-12T18:27:52.376Z,1001.76
2022-09-12T18:32:52.316Z,1001.79
2022-09-12T18:37:52.248Z,1001.78
2022-09-12T18:42:52.166Z,1001.84
2022-09-12T18:47:52.116Z,1001.82
2022-09-12T18:52:53.327Z,1001.80
2022-09-12T18:57:51.966Z,1001.93
2022-09-12T19:02:51.920Z,1001.83
2022-09-12T19:07:51.828Z,1001.88
2022-09-12T19:12:51.778Z,1001.78
2022-09-12T19:17:51.758Z,1001.83
2022-09-12T19:22:51.656Z,1001.75
2022-09-12T19:27:51.639Z,1001.76
2022-09-12T19:32:51.528Z,1001.75
2022-09-12T19:37:51.440Z,1001.71
2022-09-12T19:42:51.380Z,1001.72
2022-09-12T19:47:51.317Z,1001.72
2022-09-12T19:52:51.411Z,1001.68
2022-09-12T19:57:51.190Z,1001.68
2022-09-12T20:02:51.141Z,1001.63
2022-09-12T20:07:51.040Z,1001.55
2022-09-12T20:12:50.994Z,1001.58
2022-09-12T20:17:50.953Z,1001.58
2022-09-12T20:22:50.865Z,1001.55
2022-09-12T20:27:50.837Z,1001.63
2022-09-12T20:32:50.765Z,1001.58
2022-09-12T20:37:51.422Z,1001.50
2022-09-12T20:42:50.632Z,1001.60
2022-09-12T20:47:50.544Z,1001.59
2022-09-12T20:52:50.483Z,1001.50
2022-09-12T20:57:50.480Z,1001.45
2022-09-12T21:02:50.406Z,1001.43
2022-09-12T21:07:50.243Z,1001.51
2022-09-12T21:12:50.237Z,1001.30
2022-09-12T21:17:50.123Z,1001.33
2022-09-12T21:22:50.044Z,1001.32
2022-09-12T21:27:49.977Z,1001.28
2022-09-12T21:32:49.909Z,1001.34
2022-09-12T21:37:49.846Z,1001.38
2022-09-12T21:42:49.788Z,1001.20
2022-09-12T21:47:49.716Z,1001.28
2022-09-12T21:52:49.654Z,1001.17
2022-09-12T21:57:49.611Z,1001.14
2022-09-12T22:02:49.720Z,1001.14
2022-09-12T22:07:49.455Z,1001.07
2022-09-12T22:12:49.452Z,1001.08
2022-09-12T22:17:49.309Z,1000.97
2022-09-12T22:22:49.247Z,1000.84
2022-09-12T22:27:49.238Z,1000.82
2022-09-12T22:32:49.113Z,1000.82
2022-09-12T22:37:49.037Z,1000.82
2022-09-12T22:42:48.986Z,1000.82
2022-09-12T22:47:48.910Z,1000.72
2022-09-12T22:52:48.862Z,1000.52
2022-09-12T22:57:48.776Z,1000.48
2022-09-12T23:02:48.754Z,1000.44
2022-09-12T23:07:48.834Z,1000.38
2022-09-12T23:12:48.577Z,1000.33
2022-09-12T23:17:48.516Z,1000.32
2022-09-12T23:22:48.476Z,1000.31
2022-09-12T23:27:48.413Z,1000.28
2022-09-12T23:32:48.360Z,1000.22
2022-09-12T23:37:48.292Z,1000.26
2022-09-12T23:42:48.219Z,1000.21
2022-09-12T23:47:48.150Z,1000.14
2022-09-12T23:52:48.077Z,999.99
2022-09-12T23:57:48.025Z,1000.00
